Time;durP1;ratioP1;P1;durP2;ratioP2;P2;SDS_P1;SDS_P2;PMS_P1;PMS_P2;Temp;Humidity;BMP_temperature;BMP_pressure;BME280_temperature;BME280_humidity;BME280_pressure;Samples;Min_cycle;Max_cycle;Signal;HPM_P1;HPM_P2
2024/03/26 00:02:43;;;;;;;3.03;1.40;;;;;;;;;;6270827;28;20033;-75
2024/03/26 00:05:43;;;;;;;1.33;1.23;;;;;;;;;;6274126;28;20098;-75
2024/03/26 00:08:45;;;;;;;2.30;1.35;;;;;;;;;;6269956;28;20504;-75
2024/03/26 00:11:46;;;;;;;1.93;1.47;;;;;;;;;;6273375;28;20025;-75
2024/03/26 00:14:46;;;;;;;2.77;1.70;;;;;;;;;;6274553;28;20035;-75
2024/03/26 00:17:46;;;;;;;2.17;1.40;;;;;;;;;;6270859;28;20028;-75
2024/03/26 00:20:47;;;;;;;2.47;1.23;;;;;;;;;;6271543;28;20032;-75
2024/03/26 00:23:48;;;;;;;1.67;1.30;;;;;;;;;;6271181;28;20031;-73
2024/03/26 00:26:48;;;;;;;1.33;1.10;;;;;;;;;;6270805;28;20485;-75
2024/03/26 00:29:48;;;;;;;1.67;1.20;;;;;;;;;;6272922;28;20025;-75
2024/03/26 00:32:48;;;;;;;2.10;1.20;;;;;;;;;;6273770;28;20023;-73
2024/03/26 00:35:49;;;;;;;1.40;1.20;;;;;;;;;;6272999;28;20084;-74
2024/03/26 00:38:49;;;;;;;2.67;1.30;;;;;;;;;;6269585;28;20025;-75
2024/03/26 00:41:49;;;;;;;1.47;1.20;;;;;;;;;;6271265;28;20123;-74
2024/03/26 00:44:49;;;;;;;1.60;1.30;;;;;;;;;;6272089;28;20062;-75
2024/03/26 00:47:49;;;;;;;1.77;1.40;;;;;;;;;;6269795;28;20119;-75
2024/03/26 00:50:50;;;;;;;2.33;1.30;;;;;;;;;;6272989;28;20055;-73
2024/03/26 00:53:50;;;;;;;2.13;1.40;;;;;;;;;;6271111;28;20044;-75
2024/03/26 00:56:50;;;;;;;2.03;1.27;;;;;;;;;;6269556;28;20107;-75
2024/03/26 00:59:51;;;;;;;1.87;1.20;;;;;;;;;;6271574;28;20041;-75
2024/03/26 01:02:51;;;;;;;1.97;1.50;;;;;;;;;;6269973;28;20029;-75
2024/03/26 01:05:52;;;;;;;1.20;1.10;;;;;;;;;;6270539;28;20484;-75
2024/03/26 01:08:52;;;;;;;1.88;1.25;;;;;;;;;;6270560;28;20474;-75
2024/03/26 01:11:52;;;;;;;1.90;1.37;;;;;;;;;;6270825;28;20036;-75
2024/03/26 01:14:53;;;;;;;2.53;1.30;;;;;;;;;;6271206;28;20017;-75
2024/03/26 01:17:53;;;;;;;1.40;1.10;;;;;;;;;;6268692;28;20527;-75
2024/03/26 01:20:53;;;;;;;2.13;1.20;;;;;;;;;;6269201;28;20047;-75
2024/03/26 01:23:54;;;;;;;1.43;1.20;;;;;;;;;;6270288;28;20032;-75
2024/03/26 01:26:54;;;;;;;2.13;1.20;;;;;;;;;;6270855;28;20029;-75
2024/03/26 01:29:54;;;;;;;1.87;1.20;;;;;;;;;;6271712;28;20035;-75
2024/03/26 01:32:54;;;;;;;1.80;1.27;;;;;;;;;;6269421;28;20035;-75
2024/03/26 01:35:54;;;;;;;1.87;1.30;;;;;;;;;;6269064;28;20093;-76
2024/03/26 01:38:55;;;;;;;1.87;1.30;;;;;;;;;;6269916;28;20048;-75
2024/03/26 01:41:55;;;;;;;2.23;1.17;;;;;;;;;;6271649;28;20037;-75
2024/03/26 01:44:55;;;;;;;1.40;1.17;;;;;;;;;;6271588;28;20036;-75
2024/03/26 01:47:55;;;;;;;1.83;1.43;;;;;;;;;;6268854;28;20017;-75
2024/03/26 01:50:56;;;;;;;1.63;1.20;;;;;;;;;;6271625;28;20473;-74
2024/03/26 01:53:57;;;;;;;1.93;1.30;;;;;;;;;;6268336;28;20037;-75
2024/03/26 01:56:57;;;;;;;1.33;1.23;;;;;;;;;;6271998;28;20483;-75
2024/03/26 01:59:57;;;;;;;1.90;1.50;;;;;;;;;;6270337;28;20564;-75
2024/03/26 02:02:57;;;;;;;1.40;1.07;;;;;;;;;;6268707;28;20082;-74
2024/03/26 02:05:58;;;;;;;1.70;1.17;;;;;;;;;;6270421;28;20028;-72
2024/03/26 02:09:01;;;;;;;3.73;1.57;;;;;;;;;;6267588;28;20508;-74
2024/03/26 02:12:02;;;;;;;1.45;1.13;;;;;;;;;;6270997;28;20032;-73
2024/03/26 02:15:02;;;;;;;1.43;1.13;;;;;;;;;;6270149;28;20466;-73
2024/03/26 02:18:02;;;;;;;1.40;1.10;;;;;;;;;;6251536;28;20029;-74
2024/03/26 02:21:03;;;;;;;2.03;1.50;;;;;;;;;;6270541;28;20036;-73
2024/03/26 02:24:03;;;;;;;1.50;1.23;;;;;;;;;;6271941;28;20028;-74
2024/03/26 02:27:04;;;;;;;1.67;1.27;;;;;;;;;;6259396;28;20020;-73
2024/03/26 02:30:04;;;;;;;2.23;1.40;;;;;;;;;;6275109;28;23980;-73
2024/03/26 02:33:05;;;;;;;1.50;1.20;;;;;;;;;;6274518;28;20470;-73
2024/03/26 02:36:05;;;;;;;1.33;1.10;;;;;;;;;;6252162;28;20032;-74
2024/03/26 02:39:05;;;;;;;1.33;1.10;;;;;;;;;;6272942;28;20028;-73
2024/03/26 02:42:05;;;;;;;1.40;1.20;;;;;;;;;;6273693;28;20017;-75
2024/03/26 02:45:06;;;;;;;1.43;1.20;;;;;;;;;;6274527;28;20021;-73
2024/03/26 02:48:07;;;;;;;1.47;1.27;;;;;;;;;;6266209;28;20111;-73
2024/03/26 02:51:07;;;;;;;1.53;1.30;;;;;;;;;;6274862;28;20021;-75
2024/03/26 02:54:07;;;;;;;1.50;1.17;;;;;;;;;;6253641;28;20544;-74
2024/03/26 02:57:08;;;;;;;1.30;1.02;;;;;;;;;;6275405;28;20467;-74
2024/03/26 03:00:09;;;;;;;1.40;1.20;;;;;;;;;;6273325;28;20076;-74
2024/03/26 03:03:09;;;;;;;2.42;1.30;;;;;;;;;;6273034;28;20088;-74
2024/03/26 03:06:10;;;;;;;2.80;1.37;;;;;;;;;;6273809;28;20033;-73
2024/03/26 03:09:12;;;;;;;3.13;1.30;;;;;;;;;;6271923;28;20470;-74
2024/03/26 03:12:12;;;;;;;2.05;1.58;;;;;;;;;;6275403;28;20028;-74
2024/03/26 03:15:13;;;;;;;2.27;1.50;;;;;;;;;;6256402;28;20489;-74
2024/03/26 03:18:13;;;;;;;2.17;1.70;;;;;;;;;;6273163;28;20385;-74
2024/03/26 03:21:13;;;;;;;2.10;1.90;;;;;;;;;;6274305;28;20028;-74
2024/03/26 03:24:13;;;;;;;1.80;1.63;;;;;;;;;;6272914;28;20057;-73
2024/03/26 03:27:14;;;;;;;1.90;1.53;;;;;;;;;;6271778;28;20033;-74
2024/03/26 03:30:14;;;;;;;2.00;1.70;;;;;;;;;;6255720;28;20485;-74
2024/03/26 03:33:14;;;;;;;1.80;1.70;;;;;;;;;;6253579;28;20385;-74
2024/03/26 03:36:14;;;;;;;1.97;1.53;;;;;;;;;;6255664;28;20523;-74
2024/03/26 03:39:15;;;;;;;1.57;1.47;;;;;;;;;;6273709;28;20107;-74
2024/03/26 03:42:16;;;;;;;2.50;1.87;;;;;;;;;;6256311;28;20120;-74
2024/03/26 03:45:16;;;;;;;2.47;1.50;;;;;;;;;;6270243;28;20375;-74
2024/03/26 03:48:16;;;;;;;2.10;1.90;;;;;;;;;;6271994;28;20761;-74
2024/03/26 03:51:17;;;;;;;2.00;1.80;;;;;;;;;;6253127;28;20029;-74
2024/03/26 03:54:17;;;;;;;1.97;1.83;;;;;;;;;;6271611;28;20075;-74
2024/03/26 03:57:17;;;;;;;1.90;1.80;;;;;;;;;;6273234;28;20029;-74
2024/03/26 04:00:17;;;;;;;2.10;1.80;;;;;;;;;;6272578;28;20064;-74
2024/03/26 04:03:18;;;;;;;2.47;1.83;;;;;;;;;;6270510;28;20037;-75
2024/03/26 04:06:18;;;;;;;2.10;1.70;;;;;;;;;;6268373;28;20051;-74
2024/03/26 04:09:18;;;;;;;2.20;1.67;;;;;;;;;;6270265;28;20067;-74
2024/03/26 04:12:18;;;;;;;2.00;1.57;;;;;;;;;;6273219;28;20025;-73
2024/03/26 04:15:19;;;;;;;2.57;1.60;;;;;;;;;;6269788;28;20021;-75
2024/03/26 04:18:19;;;;;;;2.00;1.77;;;;;;;;;;6265170;28;20124;-74
2024/03/26 04:21:19;;;;;;;1.63;1.53;;;;;;;;;;6271870;28;20519;-74
2024/03/26 04:24:20;;;;;;;3.27;1.80;;;;;;;;;;6268904;28;20410;-74
2024/03/26 04:27:20;;;;;;;1.90;1.30;;;;;;;;;;6255136;28;20435;-74
2024/03/26 04:30:20;;;;;;;2.57;1.63;;;;;;;;;;6272032;28;20051;-74
2024/03/26 04:33:20;;;;;;;2.00;1.73;;;;;;;;;;6271368;28;20066;-74
2024/03/26 04:36:20;;;;;;;2.60;1.70;;;;;;;;;;6271951;28;20044;-74
2024/03/26 04:39:21;;;;;;;1.37;1.20;;;;;;;;;;6269911;28;20443;-74
2024/03/26 04:42:21;;;;;;;1.73;1.40;;;;;;;;;;6271025;28;20539;-75
2024/03/26 04:45:21;;;;;;;1.63;1.13;;;;;;;;;;6270773;28;20500;-74
2024/03/26 04:48:21;;;;;;;2.90;1.40;;;;;;;;;;6270998;28;20466;-74
2024/03/26 04:51:22;;;;;;;1.50;1.17;;;;;;;;;;6272318;28;20025;-74
2024/03/26 04:54:22;;;;;;;1.37;1.27;;;;;;;;;;6270417;28;20021;-74
2024/03/26 04:57:22;;;;;;;1.97;1.33;;;;;;;;;;6270593;28;20104;-75
2024/03/26 05:00:22;;;;;;;1.80;1.30;;;;;;;;;;6268620;28;20147;-74
2024/03/26 05:03:23;;;;;;;1.23;1.03;;;;;;;;;;6266929;28;20074;-74
2024/03/26 05:06:24;;;;;;;1.70;1.10;;;;;;;;;;6267868;28;20021;-75
2024/03/26 05:09:24;;;;;;;1.48;1.17;;;;;;;;;;6267493;28;20033;-75
2024/03/26 05:12:24;;;;;;;1.23;1.13;;;;;;;;;;6268615;28;20041;-74
2024/03/26 05:15:24;;;;;;;2.27;1.33;;;;;;;;;;6266423;28;20028;-74
2024/03/26 05:18:25;;;;;;;1.13;1.03;;;;;;;;;;6267547;28;20037;-74
2024/03/26 05:21:25;;;;;;;2.37;1.10;;;;;;;;;;6269157;28;20571;-74
2024/03/26 05:24:25;;;;;;;1.10;1.00;;;;;;;;;;6270676;28;20029;-74
2024/03/26 05:27:25;;;;;;;1.43;1.10;;;;;;;;;;6271215;28;20029;-74
2024/03/26 05:30:26;;;;;;;1.80;1.07;;;;;;;;;;6269443;28;20021;-74
2024/03/26 05:33:26;;;;;;;1.63;1.30;;;;;;;;;;6269630;28;20029;-75
2024/03/26 05:36:27;;;;;;;1.40;1.00;;;;;;;;;;6271731;28;20481;-74
2024/03/26 05:39:27;;;;;;;2.22;1.17;;;;;;;;;;6269438;28;20508;-73
2024/03/26 05:42:27;;;;;;;1.70;1.30;;;;;;;;;;6271903;28;20037;-74
2024/03/26 05:45:27;;;;;;;2.77;1.37;;;;;;;;;;6269132;28;20033;-74
2024/03/26 05:48:28;;;;;;;1.43;1.20;;;;;;;;;;6264905;28;20025;-74
2024/03/26 05:51:28;;;;;;;1.43;1.00;;;;;;;;;;6267987;28;20035;-74
2024/03/26 05:54:28;;;;;;;1.10;0.97;;;;;;;;;;6266275;28;20465;-74
2024/03/26 05:57:28;;;;;;;1.33;1.00;;;;;;;;;;6266263;28;20539;-74
2024/03/26 06:00:29;;;;;;;1.50;1.03;;;;;;;;;;6267042;28;20456;-74
2024/03/26 06:03:29;;;;;;;1.33;1.00;;;;;;;;;;6265441;28;20370;-75
2024/03/26 06:06:29;;;;;;;1.83;1.13;;;;;;;;;;6267268;28;20409;-75
2024/03/26 06:09:29;;;;;;;1.10;0.90;;;;;;;;;;6264737;28;20338;-74
2024/03/26 06:12:30;;;;;;;1.33;1.00;;;;;;;;;;6267958;28;20029;-75
2024/03/26 06:15:30;;;;;;;2.03;1.03;;;;;;;;;;6267015;28;20072;-77
2024/03/26 06:18:30;;;;;;;1.40;1.20;;;;;;;;;;6264195;28;20029;-75
2024/03/26 06:21:30;;;;;;;1.10;0.90;;;;;;;;;;6266594;28;20025;-75
2024/03/26 06:24:31;;;;;;;1.20;0.93;;;;;;;;;;6248406;28;20028;-75
2024/03/26 06:27:31;;;;;;;1.90;1.00;;;;;;;;;;6265545;28;20033;-75
2024/03/26 06:30:31;;;;;;;1.00;0.80;;;;;;;;;;6267666;28;20037;-75
2024/03/26 06:33:31;;;;;;;2.63;1.10;;;;;;;;;;6265532;28;20070;-76
2024/03/26 06:36:32;;;;;;;2.07;1.00;;;;;;;;;;6263920;28;20035;-77
2024/03/26 06:39:32;;;;;;;2.27;1.07;;;;;;;;;;6265746;28;20041;-77
2024/03/26 06:42:32;;;;;;;1.80;1.10;;;;;;;;;;6265782;28;20029;-77
2024/03/26 06:45:33;;;;;;;0.83;0.80;;;;;;;;;;6268011;28;20025;-76
2024/03/26 06:48:33;;;;;;;2.10;0.90;;;;;;;;;;6263285;28;20028;-80
2024/03/26 06:51:33;;;;;;;2.30;1.00;;;;;;;;;;6265721;28;20036;-78
2024/03/26 06:54:34;;;;;;;0.83;0.77;;;;;;;;;;6267345;28;20024;-78
2024/03/26 06:57:34;;;;;;;1.80;1.13;;;;;;;;;;6266646;28;20021;-78
2024/03/26 07:00:34;;;;;;;1.57;0.93;;;;;;;;;;6266480;28;20131;-78
2024/03/26 07:03:34;;;;;;;1.53;0.93;;;;;;;;;;6265220;28;20116;-75
2024/03/26 07:06:35;;;;;;;1.43;0.80;;;;;;;;;;6261631;28;20440;-75
2024/03/26 07:09:38;;;;;;;1.53;0.93;;;;;;;;;;6264005;28;20024;-75
2024/03/26 07:12:38;;;;;;;1.27;0.70;;;;;;;;;;6270555;28;20017;-75
2024/03/26 07:15:38;;;;;;;0.70;0.70;;;;;;;;;;6270951;28;20075;-75
2024/03/26 07:18:39;;;;;;;1.00;0.83;;;;;;;;;;6270080;28;20079;-75
2024/03/26 07:21:39;;;;;;;1.03;0.73;;;;;;;;;;6267033;28;20033;-76
2024/03/26 07:24:39;;;;;;;1.47;0.80;;;;;;;;;;6270257;28;20029;-75
2024/03/26 07:27:41;;;;;;;0.93;0.67;;;;;;;;;;6272760;28;20028;-75
2024/03/26 07:30:41;;;;;;;1.63;0.82;;;;;;;;;;6273085;28;20091;-75
2024/03/26 07:33:41;;;;;;;0.80;0.70;;;;;;;;;;6271288;28;20445;-75
2024/03/26 07:36:41;;;;;;;2.70;0.80;;;;;;;;;;6281593;28;20377;-75
2024/03/26 07:39:42;;;;;;;0.87;0.77;;;;;;;;;;6288768;28;20381;-76
2024/03/26 07:42:42;;;;;;;0.60;0.60;;;;;;;;;;6273916;28;20021;-76
2024/03/26 07:45:42;;;;;;;1.07;0.73;;;;;;;;;;6273820;28;20021;-75
2024/03/26 07:48:45;;;;;;;0.87;0.80;;;;;;;;;;6271358;28;20446;-75
2024/03/26 07:51:46;;;;;;;0.57;0.57;;;;;;;;;;6275185;28;20020;-76
2024/03/26 07:54:46;;;;;;;0.80;0.67;;;;;;;;;;6280470;28;20473;-75
2024/03/26 07:57:46;;;;;;;0.70;0.67;;;;;;;;;;6272626;28;20041;-74
2024/03/26 08:00:47;;;;;;;0.80;0.80;;;;;;;;;;6273172;28;20052;-74
2024/03/26 08:03:47;;;;;;;1.00;0.70;;;;;;;;;;6269523;28;20064;-74
2024/03/26 08:06:47;;;;;;;0.90;0.80;;;;;;;;;;6269335;28;20489;-75
2024/03/26 08:09:48;;;;;;;0.80;0.70;;;;;;;;;;5901636;28;10000467;-75
2024/03/26 08:12:48;;;;;;;0.68;0.65;;;;;;;;;;6274111;28;20454;-74
2024/03/26 08:15:49;;;;;;;1.67;0.70;;;;;;;;;;6249754;28;20033;-74
2024/03/26 08:18:49;;;;;;;1.53;0.90;;;;;;;;;;6269044;28;20465;-75
2024/03/26 08:21:49;;;;;;;0.90;0.77;;;;;;;;;;6264994;28;20510;-76
2024/03/26 08:24:50;;;;;;;1.27;0.90;;;;;;;;;;6261085;28;20048;-74
2024/03/26 08:27:50;;;;;;;0.93;0.80;;;;;;;;;;6282027;28;20019;-74
2024/03/26 08:30:50;;;;;;;0.57;0.57;;;;;;;;;;6279206;28;20401;-74
2024/03/26 08:33:50;;;;;;;0.87;0.73;;;;;;;;;;6273439;28;20017;-74
2024/03/26 08:36:51;;;;;;;0.50;0.50;;;;;;;;;;6273454;28;20028;-75
2024/03/26 08:39:51;;;;;;;0.80;0.60;;;;;;;;;;6273566;28;20108;-74
2024/03/26 08:42:51;;;;;;;0.63;0.50;;;;;;;;;;6272517;28;20489;-74
2024/03/26 08:45:52;;;;;;;0.70;0.50;;;;;;;;;;6257620;28;20492;-75
2024/03/26 08:48:52;;;;;;;1.83;0.50;;;;;;;;;;6272636;28;20021;-74
2024/03/26 08:51:52;;;;;;;0.70;0.60;;;;;;;;;;6272817;28;20764;-75
2024/03/26 08:54:52;;;;;;;0.53;0.53;;;;;;;;;;6255446;28;20415;-74
2024/03/26 08:57:53;;;;;;;0.50;0.40;;;;;;;;;;6274448;28;20043;-75
2024/03/26 09:00:53;;;;;;;0.40;0.40;;;;;;;;;;6274252;28;20573;-76
2024/03/26 09:03:53;;;;;;;0.70;0.40;;;;;;;;;;6273150;28;20560;-74
2024/03/26 09:06:53;;;;;;;0.70;0.60;;;;;;;;;;6269119;28;20549;-75
2024/03/26 09:09:54;;;;;;;1.10;0.60;;;;;;;;;;6272051;28;20481;-75
2024/03/26 09:12:54;;;;;;;0.87;0.47;;;;;;;;;;6273716;28;20029;-75
2024/03/26 09:15:55;;;;;;;0.55;0.40;;;;;;;;;;6274241;28;20039;-75
2024/03/26 09:18:55;;;;;;;1.60;0.43;;;;;;;;;;6273024;28;20104;-76
2024/03/26 09:21:55;;;;;;;0.70;0.50;;;;;;;;;;6270578;28;20044;-76
2024/03/26 09:24:56;;;;;;;0.67;0.50;;;;;;;;;;6273423;28;20155;-75
2024/03/26 09:27:56;;;;;;;0.73;0.57;;;;;;;;;;6265483;28;20159;-74
2024/03/26 09:30:56;;;;;;;0.60;0.60;;;;;;;;;;6270217;28;20021;-74
2024/03/26 09:33:56;;;;;;;1.03;0.50;;;;;;;;;;6268897;28;20059;-74
2024/03/26 09:36:56;;;;;;;1.00;0.50;;;;;;;;;;6271775;28;20420;-74
2024/03/26 09:39:57;;;;;;;0.50;0.50;;;;;;;;;;6269522;28;20499;-74
2024/03/26 09:42:58;;;;;;;2.43;0.50;;;;;;;;;;6262339;28;20512;-75
2024/03/26 09:45:58;;;;;;;0.50;0.50;;;;;;;;;;6273290;28;20568;-75
2024/03/26 09:48:59;;;;;;;0.50;0.43;;;;;;;;;;6270430;28;20032;-75
2024/03/26 09:52:00;;;;;;;0.65;0.40;;;;;;;;;;6264573;28;20120;-76
2024/03/26 09:55:00;;;;;;;;;;;;;;;;;;6262310;28;20029;-75
2024/03/26 09:58:01;;;;;;;3.30;0.47;;;;;;;;;;6272198;28;19963;-75
2024/03/26 10:01:02;;;;;;;0.60;0.40;;;;;;;;;;6264802;28;20048;-75
2024/03/26 10:04:02;;;;;;;0.40;0.35;;;;;;;;;;6271015;28;20049;-75
2024/03/26 10:07:03;;;;;;;0.77;0.50;;;;;;;;;;6252309;28;20033;-75
2024/03/26 10:10:03;;;;;;;0.38;0.32;;;;;;;;;;6272873;28;20067;-76
2024/03/26 10:13:09;;;;;;;0.53;0.40;;;;;;;;;;6265788;28;20111;-75
2024/03/26 10:16:09;;;;;;;0.50;0.50;;;;;;;;;;6259619;28;20101;-74
2024/03/26 10:19:09;;;;;;;1.33;0.40;;;;;;;;;;6269869;28;20033;-75
2024/03/26 10:22:14;;;;;;;0.70;0.40;;;;;;;;;;6270965;28;20056;-74
2024/03/26 10:25:15;;;;;;;0.50;0.40;;;;;;;;;;6266660;28;20024;-75
2024/03/26 10:28:15;;;;;;;1.13;0.30;;;;;;;;;;6273868;28;20025;-76
2024/03/26 10:31:17;;;;;;;2.30;0.40;;;;;;;;;;6292194;28;20487;-76
2024/03/26 10:34:19;;;;;;;0.70;0.50;;;;;;;;;;6263695;28;20028;-76
2024/03/26 10:37:21;;;;;;;0.82;0.70;;;;;;;;;;6271005;28;20108;-76
2024/03/26 10:40:25;;;;;;;1.23;0.50;;;;;;;;;;6272510;28;20029;-76
2024/03/26 10:43:28;;;;;;;0.40;0.40;;;;;;;;;;6272386;28;20426;-76
2024/03/26 10:46:29;;;;;;;0.85;0.35;;;;;;;;;;6277578;28;20481;-76
2024/03/26 10:49:31;;;;;;;0.28;0.22;;;;;;;;;;6274690;28;20021;-76
2024/03/26 10:52:31;;;;;;;0.55;0.38;;;;;;;;;;6276357;28;20025;-75
2024/03/26 10:55:33;;;;;;;0.37;0.30;;;;;;;;;;6276211;28;20075;-76
2024/03/26 10:58:33;;;;;;;0.55;0.20;;;;;;;;;;6276449;28;20057;-76
2024/03/26 11:01:34;;;;;;;1.00;0.30;;;;;;;;;;6277877;28;20056;-77
2024/03/26 11:04:34;;;;;;;0.55;0.20;;;;;;;;;;6274644;28;20025;-76
2024/03/26 11:07:35;;;;;;;0.60;0.30;;;;;;;;;;6275552;28;20493;-75
2024/03/26 11:10:53;;;;;;;0.93;0.30;;;;;;;;;;6276789;28;20017;-76
2024/03/26 11:13:56;;;;;;;0.20;0.20;;;;;;;;;;6271735;28;20051;-76
2024/03/26 11:16:59;;;;;;;1.42;0.20;;;;;;;;;;6276107;28;20025;-77
2024/03/26 11:20:00;;;;;;;0.50;0.30;;;;;;;;;;6273077;28;20385;-78
2024/03/26 11:23:04;;;;;;;0.20;0.20;;;;;;;;;;6275446;28;20036;-78
2024/03/26 11:26:04;;;;;;;0.30;0.30;;;;;;;;;;6276628;28;20060;-77
2024/03/26 11:29:09;;;;;;;0.30;0.30;;;;;;;;;;6276454;28;20381;-78
2024/03/26 11:32:09;;;;;;;0.30;0.30;;;;;;;;;;6273790;28;20043;-78
2024/03/26 11:35:11;;;;;;;0.83;0.50;;;;;;;;;;6250082;28;20529;-78
2024/03/26 11:38:12;;;;;;;0.30;0.28;;;;;;;;;;6261660;28;20067;-77
2024/03/26 11:41:12;;;;;;;0.60;0.32;;;;;;;;;;6276553;28;20386;-77
2024/03/26 11:44:12;;;;;;;0.52;0.20;;;;;;;;;;6274918;28;20067;-79
2024/03/26 11:47:13;;;;;;;0.50;0.40;;;;;;;;;;6274403;28;20024;-79
2024/03/26 11:50:13;;;;;;;0.83;0.40;;;;;;;;;;6274189;28;20033;-76
2024/03/26 11:53:13;;;;;;;0.30;0.30;;;;;;;;;;6274215;28;20025;-75
2024/03/26 11:56:14;;;;;;;0.20;0.20;;;;;;;;;;6274256;28;20345;-75
2024/03/26 11:59:15;;;;;;;1.23;0.30;;;;;;;;;;6273805;28;20045;-77
2024/03/26 12:02:15;;;;;;;0.60;0.40;;;;;;;;;;6273924;28;20033;-75
2024/03/26 12:05:15;;;;;;;0.75;0.30;;;;;;;;;;6274139;28;20032;-77
2024/03/26 12:08:16;;;;;;;0.30;0.30;;;;;;;;;;6275002;28;20025;-76
2024/03/26 12:11:16;;;;;;;0.47;0.37;;;;;;;;;;6275515;28;20033;-75
2024/03/26 12:14:16;;;;;;;0.40;0.37;;;;;;;;;;6274757;28;20079;-75
2024/03/26 12:17:16;;;;;;;1.30;0.40;;;;;;;;;;6272845;28;20036;-77
2024/03/26 12:20:17;;;;;;;0.20;0.20;;;;;;;;;;6274539;28;20116;-78
2024/03/26 12:23:21;;;;;;;1.53;0.30;;;;;;;;;;6273571;28;20111;-77
2024/03/26 12:26:22;;;;;;;0.95;0.32;;;;;;;;;;6275502;28;20021;-78
2024/03/26 12:29:22;;;;;;;0.50;0.30;;;;;;;;;;6275344;28;20492;-77
2024/03/26 12:32:25;;;;;;;0.40;0.40;;;;;;;;;;6269982;28;20559;-78
2024/03/26 12:35:26;;;;;;;0.30;0.30;;;;;;;;;;6274818;28;20477;-78
2024/03/26 12:38:26;;;;;;;0.30;0.30;;;;;;;;;;6274053;28;20059;-78
2024/03/26 12:41:26;;;;;;;0.33;0.30;;;;;;;;;;6275439;28;20171;-78
2024/03/26 12:44:26;;;;;;;0.30;0.30;;;;;;;;;;6275108;28;20104;-78
2024/03/26 12:47:28;;;;;;;0.30;0.30;;;;;;;;;;6273267;28;20033;-78
2024/03/26 12:50:28;;;;;;;0.80;0.30;;;;;;;;;;6274003;28;20344;-78
2024/03/26 12:53:29;;;;;;;0.53;0.40;;;;;;;;;;6274136;28;20025;-77
2024/03/26 12:56:32;;;;;;;1.97;0.37;;;;;;;;;;6274954;28;20021;-78
2024/03/26 12:59:34;;;;;;;0.65;0.30;;;;;;;;;;6277251;28;20083;-78
2024/03/26 13:02:34;;;;;;;0.30;0.30;;;;;;;;;;6297818;28;20024;-78
2024/03/26 13:05:35;;;;;;;0.50;0.20;;;;;;;;;;6279033;28;20381;-78
2024/03/26 13:08:35;;;;;;;0.38;0.38;;;;;;;;;;6272768;28;20350;-79
2024/03/26 13:11:36;;;;;;;0.37;0.30;;;;;;;;;;6274606;28;20112;-78
2024/03/26 13:14:36;;;;;;;;;;;;;;;;;;6274760;28;20088;-77
2024/03/26 13:17:40;;;;;;;0.52;0.35;;;;;;;;;;6273708;28;20341;-78
2024/03/26 13:20:40;;;;;;;1.40;0.30;;;;;;;;;;6272707;28;20060;-78
2024/03/26 13:23:41;;;;;;;0.57;0.20;;;;;;;;;;6271441;28;20031;-78
2024/03/26 13:26:41;;;;;;;0.63;0.37;;;;;;;;;;6274010;28;20047;-79
2024/03/26 13:29:41;;;;;;;;;;;;;;;;;;6274083;28;20025;-78
2024/03/26 13:32:41;;;;;;;0.28;0.20;;;;;;;;;;6272320;28;19911;-78
2024/03/26 13:35:41;;;;;;;0.30;0.27;;;;;;;;;;6274408;28;20032;-78
2024/03/26 13:38:42;;;;;;;0.70;0.40;;;;;;;;;;6271780;28;20028;-78
2024/03/26 13:41:42;;;;;;;0.30;0.30;;;;;;;;;;6271007;28;20086;-79
2024/03/26 13:44:45;;;;;;;1.13;0.40;;;;;;;;;;6255647;28;20029;-79
2024/03/26 13:47:45;;;;;;;0.40;0.32;;;;;;;;;;6270917;28;20110;-78
2024/03/26 13:50:46;;;;;;;0.30;0.27;;;;;;;;;;6274025;28;20624;-79
2024/03/26 13:53:46;;;;;;;0.40;0.40;;;;;;;;;;6272221;28;20469;-79
2024/03/26 13:56:46;;;;;;;0.30;0.30;;;;;;;;;;6271854;28;20822;-79
2024/03/26 13:59:46;;;;;;;0.60;0.40;;;;;;;;;;6272575;28;20617;-78
2024/03/26 14:02:47;;;;;;;0.33;0.33;;;;;;;;;;6271695;28;20510;-78
2024/03/26 14:05:47;;;;;;;;;;;;;;;;;;6273568;28;20549;-78
2024/03/26 14:08:47;;;;;;;0.20;0.20;;;;;;;;;;6272598;28;19905;-78
2024/03/26 14:11:47;;;;;;;1.58;0.30;;;;;;;;;;6271863;28;20036;-78
2024/03/26 14:14:48;;;;;;;0.40;0.30;;;;;;;;;;6273500;28;20036;-78
2024/03/26 14:17:49;;;;;;;0.38;0.30;;;;;;;;;;6253734;28;20481;-78
2024/03/26 14:20:49;;;;;;;0.38;0.35;;;;;;;;;;6271874;28;20064;-78
2024/03/26 14:23:49;;;;;;;;;;;;;;;;;;6270635;28;20489;-78
2024/03/26 14:26:50;;;;;;;1.45;0.20;;;;;;;;;;6255482;28;20357;-78
2024/03/26 14:29:50;;;;;;;0.50;0.30;;;;;;;;;;6272433;28;20441;-78
2024/03/26 14:32:51;;;;;;;0.57;0.30;;;;;;;;;;6271271;28;20126;-78
2024/03/26 14:35:51;;;;;;;0.40;0.30;;;;;;;;;;6272740;28;20462;-78
2024/03/26 14:38:51;;;;;;;1.70;0.30;;;;;;;;;;6267690;28;20434;-78
2024/03/26 14:41:51;;;;;;;0.30;0.30;;;;;;;;;;6263448;28;20487;-78
2024/03/26 14:44:51;;;;;;;0.40;0.30;;;;;;;;;;6288574;28;20539;-78
2024/03/26 14:47:52;;;;;;;0.30;0.30;;;;;;;;;;6271158;28;20533;-78
2024/03/26 14:50:52;;;;;;;0.20;0.20;;;;;;;;;;6254008;28;20501;-78
2024/03/26 14:53:52;;;;;;;0.87;0.20;;;;;;;;;;6271523;28;20101;-77
2024/03/26 14:56:52;;;;;;;0.20;0.20;;;;;;;;;;6271534;28;20406;-79
2024/03/26 14:59:53;;;;;;;0.40;0.23;;;;;;;;;;6288251;28;20521;-79
2024/03/26 15:02:53;;;;;;;0.30;0.30;;;;;;;;;;6295926;28;20013;-79
2024/03/26 15:05:53;;;;;;;0.30;0.30;;;;;;;;;;6297266;28;20082;-78
2024/03/26 15:08:54;;;;;;;0.30;0.30;;;;;;;;;;6272851;28;20040;-79
2024/03/26 15:11:54;;;;;;;0.30;0.30;;;;;;;;;;6272491;28;20039;-79
2024/03/26 15:14:54;;;;;;;0.50;0.40;;;;;;;;;;6268329;28;20024;-79
2024/03/26 15:17:55;;;;;;;0.30;0.30;;;;;;;;;;6274963;28;20469;-79
2024/03/26 15:20:55;;;;;;;0.50;0.40;;;;;;;;;;6271807;28;20469;-79
2024/03/26 15:23:55;;;;;;;0.20;0.20;;;;;;;;;;6270287;28;20519;-79
2024/03/26 15:33:32;;;;;;;0.80;0.30;;;;;;;;;;6275146;28;20032;-79
2024/03/26 15:36:33;;;;;;;0.30;0.30;;;;;;;;;;6276096;28;20396;-78
2024/03/26 15:39:33;;;;;;;0.70;0.50;;;;;;;;;;6273949;28;20451;-79
2024/03/26 15:42:33;;;;;;;1.13;0.60;;;;;;;;;;6276182;28;20437;-79
2024/03/26 15:45:34;;;;;;;0.50;0.47;;;;;;;;;;6276124;28;20013;-79
2024/03/26 15:48:34;;;;;;;0.40;0.40;;;;;;;;;;6274817;28;20025;-78
2024/03/26 15:51:34;;;;;;;0.50;0.50;;;;;;;;;;6276467;28;20086;-78
2024/03/26 15:54:35;;;;;;;0.57;0.40;;;;;;;;;;6273840;28;20020;-78
2024/03/26 15:57:35;;;;;;;0.40;0.40;;;;;;;;;;6275933;28;20025;-79
2024/03/26 16:00:35;;;;;;;0.60;0.30;;;;;;;;;;6276077;28;20335;-79
2024/03/26 16:03:36;;;;;;;0.82;0.47;;;;;;;;;;6274269;28;20021;-79
2024/03/26 16:06:37;;;;;;;0.50;0.40;;;;;;;;;;6280698;28;20028;-79
2024/03/26 16:09:38;;;;;;;0.40;0.40;;;;;;;;;;6272816;28;20028;-79
2024/03/26 16:12:38;;;;;;;0.32;0.32;;;;;;;;;;6275098;28;20029;-79
2024/03/26 16:15:38;;;;;;;0.30;0.30;;;;;;;;;;6275558;28;20053;-78
2024/03/26 16:18:39;;;;;;;0.70;0.33;;;;;;;;;;6273933;28;20458;-78
2024/03/26 16:21:39;;;;;;;0.63;0.40;;;;;;;;;;6272033;28;20512;-78
2024/03/26 16:24:39;;;;;;;0.53;0.30;;;;;;;;;;6273733;28;20282;-78
2024/03/26 16:27:39;;;;;;;0.50;0.43;;;;;;;;;;6275028;28;20033;-78
2024/03/26 16:30:39;;;;;;;0.53;0.40;;;;;;;;;;6274547;28;20111;-78
2024/03/26 16:33:40;;;;;;;0.30;0.30;;;;;;;;;;6273518;28;20113;-78
2024/03/26 16:36:40;;;;;;;0.40;0.40;;;;;;;;;;6273656;28;20552;-78
2024/03/26 16:39:41;;;;;;;0.73;0.30;;;;;;;;;;6273300;28;20484;-78
2024/03/26 16:42:41;;;;;;;;;;;;;;;;;;6274858;28;20024;-78
2024/03/26 16:45:41;;;;;;;0.22;0.22;;;;;;;;;;6275234;28;19912;-78
2024/03/26 16:48:42;;;;;;;0.30;0.30;;;;;;;;;;6273444;28;20025;-78
2024/03/26 16:51:42;;;;;;;0.20;0.20;;;;;;;;;;6274173;28;20029;-78
2024/03/26 16:54:43;;;;;;;0.40;0.40;;;;;;;;;;6270206;28;20028;-78
2024/03/26 16:57:43;;;;;;;0.30;0.30;;;;;;;;;;6274973;28;20020;-78
2024/03/26 17:00:43;;;;;;;0.40;0.27;;;;;;;;;;6274644;28;20461;-78
2024/03/26 17:03:44;;;;;;;0.50;0.50;;;;;;;;;;6272907;28;20377;-78
2024/03/26 17:06:45;;;;;;;0.35;0.30;;;;;;;;;;6273609;28;20017;-78
2024/03/26 17:09:45;;;;;;;0.30;0.30;;;;;;;;;;6273635;28;20052;-78
2024/03/26 17:12:45;;;;;;;0.40;0.40;;;;;;;;;;6270855;28;20013;-78
2024/03/26 17:15:47;;;;;;;0.90;0.30;;;;;;;;;;6257364;28;20472;-78
2024/03/26 17:18:47;;;;;;;0.50;0.40;;;;;;;;;;6254901;28;20021;-78
2024/03/26 17:21:47;;;;;;;0.50;0.50;;;;;;;;;;6272957;28;20029;-78
2024/03/26 17:24:47;;;;;;;0.40;0.40;;;;;;;;;;6272899;28;20457;-78
2024/03/26 17:27:48;;;;;;;0.33;0.30;;;;;;;;;;6270421;28;20539;-79
2024/03/26 17:30:48;;;;;;;0.30;0.30;;;;;;;;;;6249730;28;20458;-78
2024/03/26 17:33:49;;;;;;;0.40;0.40;;;;;;;;;;6284622;28;20458;-78
2024/03/26 17:36:49;;;;;;;0.30;0.30;;;;;;;;;;6254652;28;20109;-78
2024/03/26 17:39:49;;;;;;;0.70;0.40;;;;;;;;;;6272334;28;20025;-78
2024/03/26 17:42:50;;;;;;;0.60;0.40;;;;;;;;;;6271246;28;20043;-78
2024/03/26 17:45:52;;;;;;;0.70;0.70;;;;;;;;;;6273997;28;20453;-78
2024/03/26 17:48:52;;;;;;;0.60;0.60;;;;;;;;;;6272039;28;20052;-79
2024/03/26 17:51:53;;;;;;;0.70;0.57;;;;;;;;;;6272335;28;20028;-78
2024/03/26 17:54:53;;;;;;;0.40;0.40;;;;;;;;;;6255346;28;20382;-78
2024/03/26 17:57:53;;;;;;;0.80;0.50;;;;;;;;;;6277111;28;20392;-76
2024/03/26 18:00:53;;;;;;;0.93;0.53;;;;;;;;;;6272719;28;20041;-76
2024/03/26 18:03:54;;;;;;;0.47;0.40;;;;;;;;;;6271751;28;20063;-76
2024/03/26 18:06:54;;;;;;;0.57;0.53;;;;;;;;;;6245713;28;20091;-76
2024/03/26 18:09:54;;;;;;;0.40;0.40;;;;;;;;;;6249378;28;20132;-76
2024/03/26 18:12:54;;;;;;;0.87;0.50;;;;;;;;;;6272079;28;20447;-76